Irenes Remedy — A8WG3 — position and weather

sailwx.info

Track history (hours):
 
Tides and Currents Weather Stations Pressure Air Temp Water Temp Dewpoint Dewpoint Depression Visibility Wind Speed Wind Dir Waves Ship Positions

Irenes Remedy

Last reported at 2017-Dec-04 09:58 UTC. Time now 2017-Dec-13 18:58 UTC.
Position N 38°17' W 010°02'.
Warning: this ship's position is 9 days out of date.

Length 222 m; draft 10.2 m.

Type: Cargo ship. MMSI: 636014740.

Date/timePositionNaut miles runAvg speedWind from/ knotsBaromVisibWave heightAir tempDewpointWater temp
2017-Dec-04 09:58N 38°17' W 010°02'816.6
2017-Dec-04 09:30N 38°24' W 010°04'2416.3
2017-Dec-04 08:03N 38°48' W 010°06'215.7
2017-Dec-04 07:57N 38°50' W 010°06'815.8
2017-Dec-04 07:25N 38°58' W 010°06'715.8
2017-Dec-04 06:58N 39°05' W 010°06'815.7
2017-Dec-04 06:28N 39°13' W 010°06'69414.6
2017-Dec-02 06:58N 49°46' W 003°27'714.5
2017-Dec-02 06:31N 49°49' W 003°18'1214.0
2017-Dec-02 05:41N 49°54' W 003°02'213.8
2017-Dec-02 05:30N 49°56' W 002°59'713.5
2017-Dec-02 04:59N 49°58' W 002°49'713.7
2017-Dec-02 04:28N 50°00' W 002°38'3914.9
2017-Dec-02 01:50N 50°11' W 001°39'615.8
2017-Dec-02 01:29N 50°12' W 001°31'4416.5
2017-Dec-01 22:49N 50°24' W 000°25'516.6
2017-Dec-01 22:31N 50°25' W 000°17'815.9
2017-Dec-01 22:01N 50°27' W 000°05'815.6
2017-Dec-01 21:31N 50°29' E 000°07'1223.4
2017-Dec-01 21:00N 50°33' E 000°24'4 6.9
2017-Dec-01 20:28N 50°34' E 000°30'714.2
2017-Dec-01 20:01N 50°38' E 000°39'714.4
2017-Dec-01 19:30N 50°42' E 000°48'714.7
2017-Dec-01 19:01N 50°46' E 000°57'3049.9
2017-Dec-01 18:25N 51°05' E 001°33'0 0.3
2017-Dec-01 17:47N 51°06' E 001°34'827.7
2017-Dec-01 17:30N 51°00' E 001°25'816.5
2017-Dec-01 17:01N 51°06' E 001°34'917.0
2017-Dec-01 16:31N 51°12' E 001°44'816.1
2017-Dec-01 16:00N 51°19' E 001°51'816.0
2017-Dec-01 15:30N 51°26' E 001°56'815.5
2017-Dec-01 15:00N 51°32' E 002°05'715.1
2017-Dec-01 14:30N 51°38' E 002°13'14714.5
2017-Dec-01 04:21N 53°30' E 004°48'813.9
2017-Dec-01 03:45N 53°33' E 005°01'10915.0
2017-Nov-30 20:29N 54°01' E 007°60'714.5
2017-Nov-30 20:00N 54°01' E 008°11'713.8
2017-Nov-30 19:30N 53°59' E 008°23'714.9
2017-Nov-30 19:00N 53°58' E 008°36'612.3
2017-Nov-30 18:30N 53°53' E 008°42'611.9
2017-Nov-30 18:00N 53°50' E 008°51'815.2
2017-Nov-30 17:30N 53°52' E 009°04'611.4
2017-Nov-30 17:00N 53°53' E 009°13'815.3
2017-Nov-30 16:31N 53°48' E 009°23'815.7
2017-Nov-30 16:00N 53°41' E 009°30'714.6
2017-Nov-30 15:31N 53°35' E 009°37'612.7
2017-Nov-30 15:00N 53°33' E 009°47'510.3
2017-Nov-30 14:31N 53°32' E 009°56'2 3.6
2017-Nov-30 13:59N 53°31' E 009°56'0 0.1
2017-Nov-30 13:29N 53°31' E 009°56'0 0.0
2017-Nov-30 12:59N 53°31' E 009°56'0 0.0
2017-Nov-30 12:29N 53°31' E 009°56'0 0.0
2017-Nov-30 11:59N 53°31' E 009°56'0 0.0
2017-Nov-30 11:29N 53°31' E 009°56'0 0.0
2017-Nov-30 10:59N 53°31' E 009°56'0 0.0
2017-Nov-30 10:29N 53°31' E 009°56'0 0.0
2017-Nov-30 09:59N 53°31' E 009°56'0 0.0
2017-Nov-30 09:29N 53°31' E 009°56'0 0.0
2017-Nov-30 08:59N 53°31' E 009°56'0 0.0
2017-Nov-30 08:26N 53°31' E 009°56'0 0.0
2017-Nov-30 07:59N 53°31' E 009°56'0 0.0
2017-Nov-30 07:29N 53°31' E 009°56'0 0.0
2017-Nov-30 06:59N 53°31' E 009°56'0 0.0
2017-Nov-30 06:28N 53°31' E 009°56'0 0.0
2017-Nov-30 05:58N 53°31' E 009°56'0 0.0
2017-Nov-30 05:29N 53°31' E 009°56'0 0.0
2017-Nov-30 04:59N 53°31' E 009°56'0 0.0
2017-Nov-30 04:29N 53°31' E 009°56'0 0.0
2017-Nov-30 03:58N 53°31' E 009°56'0 0.0
2017-Nov-30 03:28N 53°31' E 009°56'0 0.0
2017-Nov-30 02:58N 53°31' E 009°56'0 0.0
2017-Nov-30 02:28N 53°31' E 009°56'0 0.0
2017-Nov-30 01:58N 53°31' E 009°56'0 0.0
2017-Nov-30 01:28N 53°31' E 009°56'0 0.0
2017-Nov-30 00:58N 53°31' E 009°56'0 0.0
2017-Nov-30 00:28N 53°31' E 009°56'0 0.0
2017-Nov-29 23:58N 53°31' E 009°56'0 0.0
2017-Nov-29 23:28N 53°31' E 009°56'0 0.0
2017-Nov-29 22:58N 53°31' E 009°56'0 0.0
2017-Nov-29 22:28N 53°31' E 009°56'0 0.0
2017-Nov-29 21:58N 53°31' E 009°56'0 0.1
2017-Nov-29 21:31N 53°31' E 009°56'2 3.4
2017-Nov-29 21:00N 53°32' E 009°56'4 8.5
2017-Nov-29 20:30N 53°33' E 009°49'612.8
2017-Nov-29 20:00N 53°34' E 009°38'713.6
2017-Nov-29 19:30N 53°39' E 009°31'611.2
2017-Nov-29 19:00N 53°44' E 009°26'611.5
2017-Nov-29 18:30N 53°49' E 009°22'612.0
2017-Nov-29 18:00N 53°53' E 009°13'611.3
2017-Nov-29 17:30N 53°52' E 009°04'611.8
2017-Nov-29 17:01N 53°50' E 008°54'510.8
2017-Nov-29 16:30N 53°51' E 008°45'510.1
2017-Nov-29 16:01N 53°55' E 008°40'612.4
2017-Nov-29 15:30N 53°58' E 008°31'612.9
2017-Nov-29 15:01N 53°59' E 008°20'612.2
2017-Nov-29 14:30N 53°59' E 008°09'6 7.4
2017-Nov-29 13:43N 53°58' E 007°60'0 1.6
2017-Nov-29 13:28N 53°58' E 007°59'0 0.6
2017-Nov-29 13:01N 53°58' E 007°59'1 2.2
2017-Nov-29 12:30N 53°58' E 007°57'2 4.3
2017-Nov-29 12:00N 53°58' E 007°54'4 7.6
2017-Nov-29 11:29N 53°57' E 007°47'8610.6
2017-Nov-29 03:26N 53°34' E 005°27'611.6
2017-Nov-29 02:57N 53°32' E 005°18'510.8
2017-Nov-29 02:30N 53°31' E 005°11'511.0
2017-Nov-29 02:00N 53°29' E 005°02'611.1
2017-Nov-29 01:30N 53°27' E 004°53'611.7
2017-Nov-29 01:00N 53°24' E 004°45'611.4
2017-Nov-29 00:26N 53°18' E 004°39'1611.8
2017-Nov-28 23:06N 53°05' E 004°26'311.9
2017-Nov-28 22:53N 53°03' E 004°24'511.9
2017-Nov-28 22:31N 52°59' E 004°20'612.6
2017-Nov-28 22:01N 52°53' E 004°16'612.2
2017-Nov-28 21:30N 52°48' E 004°10'612.4
2017-Nov-28 21:01N 52°43' E 004°04'612.5
2017-Nov-28 20:31N 52°38' E 003°58'612.3
2017-Nov-28 20:00N 52°33' E 003°52'612.1
2017-Nov-28 19:29N 52°28' E 003°45'612.3
2017-Nov-28 18:59N 52°22' E 003°41'612.5
2017-Nov-28 18:31N 52°17' E 003°36'612.2
2017-Nov-28 18:00N 52°12' E 003°32'612.1
2017-Nov-28 17:29N 52°06' E 003°27'612.2
2017-Nov-28 16:59N 52°00' E 003°24'612.1
2017-Nov-28 16:30N 51°55' E 003°21'611.9
2017-Nov-28 16:00N 51°49' E 003°18'1111.4
2017-Nov-28 14:59N 51°38' E 003°12'613.0
2017-Nov-28 14:30N 51°33' E 003°08'713.5
2017-Nov-28 14:01N 51°28' E 003°00'611.4
2017-Nov-28 13:30N 51°24' E 003°08'816.0
2017-Nov-28 13:00N 51°24' E 003°20'816.1
2017-Nov-28 12:30N 51°25' E 003°33'4 8.2
2017-Nov-28 12:00N 51°27' E 003°40'714.6
2017-Nov-28 11:31N 51°21' E 003°48'714.2
2017-Nov-28 11:00N 51°25' E 003°58'4 9.0
2017-Nov-28 10:31N 51°22' E 004°04'611.5
2017-Nov-28 10:00N 51°22' E 004°13'5 9.5
2017-Nov-28 09:31N 51°18' E 004°16'1 1.7
2017-Nov-28 09:00N 51°17' E 004°16'0 0.0
2017-Nov-28 08:30N 51°17' E 004°16'0 0.0
2017-Nov-28 08:00N 51°17' E 004°16'0 0.0
2017-Nov-28 07:30N 51°17' E 004°16'0 0.0
2017-Nov-28 07:00N 51°17' E 004°16'0 0.0
2017-Nov-28 06:30N 51°17' E 004°16'0 0.0
2017-Nov-28 06:00N 51°17' E 004°16'0 0.0
2017-Nov-28 05:30N 51°17' E 004°16'0 0.0
2017-Nov-28 04:30N 51°17' E 004°16'0 0.0
2017-Nov-28 04:00N 51°17' E 004°16'0 0.0
2017-Nov-28 03:30N 51°17' E 004°16'0 0.0
2017-Nov-28 03:00N 51°17' E 004°16'0 0.0
2017-Nov-28 02:30N 51°17' E 004°16'0 0.0
2017-Nov-28 01:54N 51°17' E 004°16'0 0.0
2017-Nov-28 01:30N 51°17' E 004°16'0 0.0
2017-Nov-28 01:00N 51°17' E 004°16'0 0.1
2017-Nov-28 00:30N 51°17' E 004°16'0 0.1
2017-Nov-28 00:00N 51°17' E 004°16'0 0.0
2017-Nov-27 23:30N 51°17' E 004°16'0 0.0
2017-Nov-27 22:57N 51°17' E 004°16'0 0.0
2017-Nov-27 22:30N 51°17' E 004°16'0 0.0
2017-Nov-27 22:00N 51°17' E 004°16'0 0.0
2017-Nov-27 21:30N 51°17' E 004°16'0 0.0
2017-Nov-27 21:00N 51°17' E 004°16'0 0.0
2017-Nov-27 20:27N 51°17' E 004°16'0 0.0
2017-Nov-27 19:57N 51°17' E 004°16'0 0.0
2017-Nov-27 19:29N 51°17' E 004°16'0 0.0
2017-Nov-27 18:59N 51°17' E 004°16'0 0.0
2017-Nov-27 18:29N 51°17' E 004°16'0 0.0
2017-Nov-27 17:56N 51°17' E 004°16'0 0.0
2017-Nov-27 17:20N 51°17' E 004°16'0 0.0
2017-Nov-27 16:59N 51°17' E 004°16'0 0.0
2017-Nov-27 16:29N 51°17' E 004°16'0 0.0
2017-Nov-27 15:59N 51°17' E 004°16'0 0.0
2017-Nov-27 15:29N 51°17' E 004°16'0 0.0
2017-Nov-27 14:59N 51°17' E 004°16'0 0.0
2017-Nov-27 14:29N 51°17' E 004°16'0 0.0
2017-Nov-27 13:59N 51°17' E 004°16'0 0.0
2017-Nov-27 13:29N 51°17' E 004°16'0 0.0
2017-Nov-27 12:59N 51°17' E 004°16'0 0.0
2017-Nov-27 12:29N 51°17' E 004°16'0 0.0
2017-Nov-27 11:59N 51°17' E 004°16'0 0.0
2017-Nov-27 11:29N 51°17' E 004°16'0 0.0
2017-Nov-27 10:56N 51°17' E 004°16'0 0.0
2017-Nov-27 10:26N 51°17' E 004°16'0 0.3
2017-Nov-27 10:00N 51°18' E 004°16'1 2.3
2017-Nov-27 09:30N 51°19' E 004°16'4 8.3
2017-Nov-27 09:00N 51°22' E 004°13'510.8
2017-Nov-27 08:30N 51°22' E 004°04'5 9.9
2017-Nov-27 08:00N 51°25' E 003°58'612.4
2017-Nov-27 07:30N 51°21' E 003°51'612.0
2017-Nov-27 07:00N 51°24' E 003°43'5 9.0
2017-Nov-27 06:30N 51°26' E 003°36'510.5
2017-Nov-27 06:01N 51°25' E 003°28'815.4
2017-Nov-27 05:31N 51°24' E 003°16'713.5
2017-Nov-27 05:01N 51°24' E 003°05'713.0
2017-Nov-27 04:30N 51°22' E 002°55'713.1
2017-Nov-27 04:00N 51°22' E 002°44'4 7.9
2017-Nov-27 03:29N 51°22' E 002°38'2 4.9
2017-Nov-27 03:00N 51°20' E 002°35'0 0.2
2017-Nov-27 02:15N 51°20' E 002°35'0 0.1
2017-Nov-27 01:56N 51°20' E 002°35'0 0.0
2017-Nov-27 01:29N 51°20' E 002°35'0 0.1
2017-Nov-27 00:59N 51°20' E 002°35'0 0.0
2017-Nov-27 00:20N 51°20' E 002°35'0 0.1
2017-Nov-26 23:59N 51°20' E 002°35'0 0.0
2017-Nov-26 23:29N 51°20' E 002°35'0 0.0
2017-Nov-26 22:56N 51°20' E 002°35'0 1.1
2017-Nov-26 22:30N 51°20' E 002°34'4 7.1
2017-Nov-26 21:58N 51°21' E 002°28'4 9.3
2017-Nov-26 21:30N 51°19' E 002°22'5 9.5
2017-Nov-26 20:59N 51°17' E 002°16'5 9.9
2017-Nov-26 20:31N 51°14' E 002°09'510.1
2017-Nov-26 20:00N 51°12' E 002°02'510.3
2017-Nov-26 19:30N 51°09' E 001°55'510.5
2017-Nov-26 19:00N 51°06' E 001°48'510.5
2017-Nov-26 18:30N 51°02' E 001°43'610.9
2017-Nov-26 18:00N 50°58' E 001°37'7711.3
2017-Nov-26 11:11N 50°18' W 000°07'3814.4
2017-Nov-26 08:32N 50°09' W 001°05'014.4
2017-Nov-26 08:30N 50°09' W 001°06'714.2
2017-Nov-26 08:00N 50°07' W 001°16'713.9
2017-Nov-26 07:31N 50°05' W 001°26'713.5
2017-Nov-26 07:00N 50°04' W 001°37'713.4
2017-Nov-26 06:30N 50°02' W 001°47'713.2
2017-Nov-26 06:00N 49°60' W 001°56'713.1
2017-Nov-26 05:28N 49°57' W 002°07'13612.9
2017-Nov-25 18:57N 48°55' W 005°12'613.1
2017-Nov-25 18:29N 48°52' W 005°20'1012.7
2017-Nov-25 17:40N 48°46' W 005°33'313.0
2017-Nov-25 17:26N 48°44' W 005°36'  
Track history (hours):
 
Tides and Currents Weather Stations Pressure Air Temp Water Temp Dewpoint Dewpoint Depression Visibility Wind Speed Wind Dir Waves Ship Positions

Irenes Remedy

Last reported at 2017-Dec-04 09:58 UTC. Time now 2017-Dec-13 18:58 UTC.
Position N 38°17' W 010°02'.
Warning: this ship's position is 9 days out of date.

Length 222 m; draft 10.2 m.

Type: Cargo ship. MMSI: 636014740.

Date/timePositionNaut miles runAvg speedWind from/ knotsBaromVisibWave heightAir tempDewpointWater temp
2017-Dec-04 09:58N 38°17' W 010°02'816.6
2017-Dec-04 09:30N 38°24' W 010°04'2416.3
2017-Dec-04 08:03N 38°48' W 010°06'215.7
2017-Dec-04 07:57N 38°50' W 010°06'815.8
2017-Dec-04 07:25N 38°58' W 010°06'715.8
2017-Dec-04 06:58N 39°05' W 010°06'815.7
2017-Dec-04 06:28N 39°13' W 010°06'69414.6
2017-Dec-02 06:58N 49°46' W 003°27'714.5
2017-Dec-02 06:31N 49°49' W 003°18'1214.0
2017-Dec-02 05:41N 49°54' W 003°02'213.8
2017-Dec-02 05:30N 49°56' W 002°59'713.5
2017-Dec-02 04:59N 49°58' W 002°49'713.7
2017-Dec-02 04:28N 50°00' W 002°38'3914.9
2017-Dec-02 01:50N 50°11' W 001°39'615.8
2017-Dec-02 01:29N 50°12' W 001°31'4416.5
2017-Dec-01 22:49N 50°24' W 000°25'516.6
2017-Dec-01 22:31N 50°25' W 000°17'815.9
2017-Dec-01 22:01N 50°27' W 000°05'815.6
2017-Dec-01 21:31N 50°29' E 000°07'1223.4
2017-Dec-01 21:00N 50°33' E 000°24'4 6.9
2017-Dec-01 20:28N 50°34' E 000°30'714.2
2017-Dec-01 20:01N 50°38' E 000°39'714.4
2017-Dec-01 19:30N 50°42' E 000°48'714.7
2017-Dec-01 19:01N 50°46' E 000°57'3049.9
2017-Dec-01 18:25N 51°05' E 001°33'0 0.3
2017-Dec-01 17:47N 51°06' E 001°34'827.7
2017-Dec-01 17:30N 51°00' E 001°25'816.5
2017-Dec-01 17:01N 51°06' E 001°34'917.0
2017-Dec-01 16:31N 51°12' E 001°44'816.1
2017-Dec-01 16:00N 51°19' E 001°51'816.0
2017-Dec-01 15:30N 51°26' E 001°56'815.5
2017-Dec-01 15:00N 51°32' E 002°05'715.1
2017-Dec-01 14:30N 51°38' E 002°13'14714.5
2017-Dec-01 04:21N 53°30' E 004°48'813.9
2017-Dec-01 03:45N 53°33' E 005°01'10915.0
2017-Nov-30 20:29N 54°01' E 007°60'714.5
2017-Nov-30 20:00N 54°01' E 008°11'713.8
2017-Nov-30 19:30N 53°59' E 008°23'714.9
2017-Nov-30 19:00N 53°58' E 008°36'612.3
2017-Nov-30 18:30N 53°53' E 008°42'611.9
2017-Nov-30 18:00N 53°50' E 008°51'815.2
2017-Nov-30 17:30N 53°52' E 009°04'611.4
2017-Nov-30 17:00N 53°53' E 009°13'815.3
2017-Nov-30 16:31N 53°48' E 009°23'815.7
2017-Nov-30 16:00N 53°41' E 009°30'714.6
2017-Nov-30 15:31N 53°35' E 009°37'612.7
2017-Nov-30 15:00N 53°33' E 009°47'510.3
2017-Nov-30 14:31N 53°32' E 009°56'2 3.6
2017-Nov-30 13:59N 53°31' E 009°56'0 0.1
2017-Nov-30 13:29N 53°31' E 009°56'0 0.0
2017-Nov-30 12:59N 53°31' E 009°56'0 0.0
2017-Nov-30 12:29N 53°31' E 009°56'0 0.0
2017-Nov-30 11:59N 53°31' E 009°56'0 0.0
2017-Nov-30 11:29N 53°31' E 009°56'0 0.0
2017-Nov-30 10:59N 53°31' E 009°56'0 0.0
2017-Nov-30 10:29N 53°31' E 009°56'0 0.0
2017-Nov-30 09:59N 53°31' E 009°56'0 0.0
2017-Nov-30 09:29N 53°31' E 009°56'0 0.0
2017-Nov-30 08:59N 53°31' E 009°56'0 0.0
2017-Nov-30 08:26N 53°31' E 009°56'0 0.0
2017-Nov-30 07:59N 53°31' E 009°56'0 0.0
2017-Nov-30 07:29N 53°31' E 009°56'0 0.0
2017-Nov-30 06:59N 53°31' E 009°56'0 0.0
2017-Nov-30 06:28N 53°31' E 009°56'0 0.0
2017-Nov-30 05:58N 53°31' E 009°56'0 0.0
2017-Nov-30 05:29N 53°31' E 009°56'0 0.0
2017-Nov-30 04:59N 53°31' E 009°56'0 0.0
2017-Nov-30 04:29N 53°31' E 009°56'0 0.0
2017-Nov-30 03:58N 53°31' E 009°56'0 0.0
2017-Nov-30 03:28N 53°31' E 009°56'0 0.0
2017-Nov-30 02:58N 53°31' E 009°56'0 0.0
2017-Nov-30 02:28N 53°31' E 009°56'0 0.0
2017-Nov-30 01:58N 53°31' E 009°56'0 0.0
2017-Nov-30 01:28N 53°31' E 009°56'0 0.0
2017-Nov-30 00:58N 53°31' E 009°56'0 0.0
2017-Nov-30 00:28N 53°31' E 009°56'0 0.0
2017-Nov-29 23:58N 53°31' E 009°56'0 0.0
2017-Nov-29 23:28N 53°31' E 009°56'0 0.0
2017-Nov-29 22:58N 53°31' E 009°56'0 0.0
2017-Nov-29 22:28N 53°31' E 009°56'0 0.0
2017-Nov-29 21:58N 53°31' E 009°56'0 0.1
2017-Nov-29 21:31N 53°31' E 009°56'2 3.4
2017-Nov-29 21:00N 53°32' E 009°56'4 8.5
2017-Nov-29 20:30N 53°33' E 009°49'612.8
2017-Nov-29 20:00N 53°34' E 009°38'713.6
2017-Nov-29 19:30N 53°39' E 009°31'611.2
2017-Nov-29 19:00N 53°44' E 009°26'611.5
2017-Nov-29 18:30N 53°49' E 009°22'612.0
2017-Nov-29 18:00N 53°53' E 009°13'611.3
2017-Nov-29 17:30N 53°52' E 009°04'611.8
2017-Nov-29 17:01N 53°50' E 008°54'510.8
2017-Nov-29 16:30N 53°51' E 008°45'510.1
2017-Nov-29 16:01N 53°55' E 008°40'612.4
2017-Nov-29 15:30N 53°58' E 008°31'612.9
2017-Nov-29 15:01N 53°59' E 008°20'612.2
2017-Nov-29 14:30N 53°59' E 008°09'6 7.4
2017-Nov-29 13:43N 53°58' E 007°60'0 1.6
2017-Nov-29 13:28N 53°58' E 007°59'0 0.6
2017-Nov-29 13:01N 53°58' E 007°59'1 2.2
2017-Nov-29 12:30N 53°58' E 007°57'2 4.3
2017-Nov-29 12:00N 53°58' E 007°54'4 7.6
2017-Nov-29 11:29N 53°57' E 007°47'8610.6
2017-Nov-29 03:26N 53°34' E 005°27'611.6
2017-Nov-29 02:57N 53°32' E 005°18'510.8
2017-Nov-29 02:30N 53°31' E 005°11'511.0
2017-Nov-29 02:00N 53°29' E 005°02'611.1
2017-Nov-29 01:30N 53°27' E 004°53'611.7
2017-Nov-29 01:00N 53°24' E 004°45'611.4
2017-Nov-29 00:26N 53°18' E 004°39'1611.8
2017-Nov-28 23:06N 53°05' E 004°26'311.9
2017-Nov-28 22:53N 53°03' E 004°24'511.9
2017-Nov-28 22:31N 52°59' E 004°20'612.6
2017-Nov-28 22:01N 52°53' E 004°16'612.2
2017-Nov-28 21:30N 52°48' E 004°10'612.4
2017-Nov-28 21:01N 52°43' E 004°04'612.5
2017-Nov-28 20:31N 52°38' E 003°58'612.3
2017-Nov-28 20:00N 52°33' E 003°52'612.1
2017-Nov-28 19:29N 52°28' E 003°45'612.3
2017-Nov-28 18:59N 52°22' E 003°41'612.5
2017-Nov-28 18:31N 52°17' E 003°36'612.2
2017-Nov-28 18:00N 52°12' E 003°32'612.1
2017-Nov-28 17:29N 52°06' E 003°27'612.2
2017-Nov-28 16:59N 52°00' E 003°24'612.1
2017-Nov-28 16:30N 51°55' E 003°21'611.9
2017-Nov-28 16:00N 51°49' E 003°18'1111.4
2017-Nov-28 14:59N 51°38' E 003°12'613.0
2017-Nov-28 14:30N 51°33' E 003°08'713.5
2017-Nov-28 14:01N 51°28' E 003°00'611.4
2017-Nov-28 13:30N 51°24' E 003°08'816.0
2017-Nov-28 13:00N 51°24' E 003°20'816.1
2017-Nov-28 12:30N 51°25' E 003°33'4 8.2
2017-Nov-28 12:00N 51°27' E 003°40'714.6
2017-Nov-28 11:31N 51°21' E 003°48'714.2
2017-Nov-28 11:00N 51°25' E 003°58'4 9.0
2017-Nov-28 10:31N 51°22' E 004°04'611.5
2017-Nov-28 10:00N 51°22' E 004°13'5 9.5
2017-Nov-28 09:31N 51°18' E 004°16'1 1.7
2017-Nov-28 09:00N 51°17' E 004°16'0 0.0
2017-Nov-28 08:30N 51°17' E 004°16'0 0.0
2017-Nov-28 08:00N 51°17' E 004°16'0 0.0
2017-Nov-28 07:30N 51°17' E 004°16'0 0.0
2017-Nov-28 07:00N 51°17' E 004°16'0 0.0
2017-Nov-28 06:30N 51°17' E 004°16'0 0.0
2017-Nov-28 06:00N 51°17' E 004°16'0 0.0
2017-Nov-28 05:30N 51°17' E 004°16'0 0.0
2017-Nov-28 04:30N 51°17' E 004°16'0 0.0
2017-Nov-28 04:00N 51°17' E 004°16'0 0.0
2017-Nov-28 03:30N 51°17' E 004°16'0 0.0
2017-Nov-28 03:00N 51°17' E 004°16'0 0.0
2017-Nov-28 02:30N 51°17' E 004°16'0 0.0
2017-Nov-28 01:54N 51°17' E 004°16'0 0.0
2017-Nov-28 01:30N 51°17' E 004°16'0 0.0
2017-Nov-28 01:00N 51°17' E 004°16'0 0.1
2017-Nov-28 00:30N 51°17' E 004°16'0 0.1
2017-Nov-28 00:00N 51°17' E 004°16'0 0.0
2017-Nov-27 23:30N 51°17' E 004°16'0 0.0
2017-Nov-27 22:57N 51°17' E 004°16'0 0.0
2017-Nov-27 22:30N 51°17' E 004°16'0 0.0
2017-Nov-27 22:00N 51°17' E 004°16'0 0.0
2017-Nov-27 21:30N 51°17' E 004°16'0 0.0
2017-Nov-27 21:00N 51°17' E 004°16'0 0.0
2017-Nov-27 20:27N 51°17' E 004°16'0 0.0
2017-Nov-27 19:57N 51°17' E 004°16'0 0.0
2017-Nov-27 19:29N 51°17' E 004°16'0 0.0
2017-Nov-27 18:59N 51°17' E 004°16'0 0.0
2017-Nov-27 18:29N 51°17' E 004°16'0 0.0
2017-Nov-27 17:56N 51°17' E 004°16'0 0.0
2017-Nov-27 17:20N 51°17' E 004°16'0 0.0
2017-Nov-27 16:59N 51°17' E 004°16'0 0.0
2017-Nov-27 16:29N 51°17' E 004°16'0 0.0
2017-Nov-27 15:59N 51°17' E 004°16'0 0.0
2017-Nov-27 15:29N 51°17' E 004°16'0 0.0
2017-Nov-27 14:59N 51°17' E 004°16'0 0.0
2017-Nov-27 14:29N 51°17' E 004°16'0 0.0
2017-Nov-27 13:59N 51°17' E 004°16'0 0.0
2017-Nov-27 13:29N 51°17' E 004°16'0 0.0
2017-Nov-27 12:59N 51°17' E 004°16'0 0.0
2017-Nov-27 12:29N 51°17' E 004°16'0 0.0
2017-Nov-27 11:59N 51°17' E 004°16'0 0.0
2017-Nov-27 11:29N 51°17' E 004°16'0 0.0
2017-Nov-27 10:56N 51°17' E 004°16'0 0.0
2017-Nov-27 10:26N 51°17' E 004°16'0 0.3
2017-Nov-27 10:00N 51°18' E 004°16'1 2.3
2017-Nov-27 09:30N 51°19' E 004°16'4 8.3
2017-Nov-27 09:00N 51°22' E 004°13'510.8
2017-Nov-27 08:30N 51°22' E 004°04'5 9.9
2017-Nov-27 08:00N 51°25' E 003°58'612.4
2017-Nov-27 07:30N 51°21' E 003°51'612.0
2017-Nov-27 07:00N 51°24' E 003°43'5 9.0
2017-Nov-27 06:30N 51°26' E 003°36'510.5
2017-Nov-27 06:01N 51°25' E 003°28'815.4
2017-Nov-27 05:31N 51°24' E 003°16'713.5
2017-Nov-27 05:01N 51°24' E 003°05'713.0
2017-Nov-27 04:30N 51°22' E 002°55'713.1
2017-Nov-27 04:00N 51°22' E 002°44'4 7.9
2017-Nov-27 03:29N 51°22' E 002°38'2 4.9
2017-Nov-27 03:00N 51°20' E 002°35'0 0.2
2017-Nov-27 02:15N 51°20' E 002°35'0 0.1
2017-Nov-27 01:56N 51°20' E 002°35'0 0.0
2017-Nov-27 01:29N 51°20' E 002°35'0 0.1
2017-Nov-27 00:59N 51°20' E 002°35'0 0.0
2017-Nov-27 00:20N 51°20' E 002°35'0 0.1
2017-Nov-26 23:59N 51°20' E 002°35'0 0.0
2017-Nov-26 23:29N 51°20' E 002°35'0 0.0
2017-Nov-26 22:56N 51°20' E 002°35'0 1.1
2017-Nov-26 22:30N 51°20' E 002°34'4 7.1
2017-Nov-26 21:58N 51°21' E 002°28'4 9.3
2017-Nov-26 21:30N 51°19' E 002°22'5 9.5
2017-Nov-26 20:59N 51°17' E 002°16'5 9.9
2017-Nov-26 20:31N 51°14' E 002°09'510.1
2017-Nov-26 20:00N 51°12' E 002°02'510.3
2017-Nov-26 19:30N 51°09' E 001°55'510.5
2017-Nov-26 19:00N 51°06' E 001°48'510.5
2017-Nov-26 18:30N 51°02' E 001°43'610.9
2017-Nov-26 18:00N 50°58' E 001°37'7711.3
2017-Nov-26 11:11N 50°18' W 000°07'3814.4
2017-Nov-26 08:32N 50°09' W 001°05'014.4
2017-Nov-26 08:30N 50°09' W 001°06'714.2
2017-Nov-26 08:00N 50°07' W 001°16'713.9
2017-Nov-26 07:31N 50°05' W 001°26'713.5
2017-Nov-26 07:00N 50°04' W 001°37'713.4
2017-Nov-26 06:30N 50°02' W 001°47'713.2
2017-Nov-26 06:00N 49°60' W 001°56'713.1
2017-Nov-26 05:28N 49°57' W 002°07'13612.9
2017-Nov-25 18:57N 48°55' W 005°12'613.1
2017-Nov-25 18:29N 48°52' W 005°20'1012.7
2017-Nov-25 17:40N 48°46' W 005°33'313.0
2017-Nov-25 17:26N 48°44' W 005°36'  

Dump ship's entire track history